createdAt,value
2023-12-09T00:02:23.901Z,13.97
2023-12-09T00:05:26.829Z,12.40
2023-12-09T00:08:31.055Z,12.55
2023-12-09T00:11:33.924Z,11.82
2023-12-09T00:14:36.881Z,12.37
2023-12-09T00:17:39.783Z,12.53
2023-12-09T00:20:42.568Z,11.77
2023-12-09T00:23:49.800Z,12.68
2023-12-09T00:26:52.656Z,12.75
2023-12-09T00:29:55.596Z,12.50
2023-12-09T00:32:58.523Z,13.80
2023-12-09T00:36:01.336Z,11.90
2023-12-09T00:39:06.321Z,11.93
2023-12-09T00:42:09.269Z,12.18
2023-12-09T00:45:12.652Z,13.97
2023-12-09T00:48:15.778Z,13.67
2023-12-09T00:51:18.883Z,11.90
2023-12-09T00:54:23.039Z,12.15
2023-12-09T00:57:26.098Z,11.25
2023-12-09T01:00:28.971Z,11.90
2023-12-09T01:03:31.969Z,12.47
2023-12-09T01:06:35.029Z,11.38
2023-12-09T01:09:39.185Z,12.70
2023-12-09T01:12:42.249Z,12.10
2023-12-09T01:15:45.011Z,13.07
2023-12-09T01:18:48.192Z,12.10
2023-12-09T01:21:51.014Z,12.20
2023-12-09T01:24:55.092Z,11.73
2023-12-09T01:27:57.967Z,11.60
2023-12-09T01:31:00.959Z,12.50
2023-12-09T01:34:04.314Z,11.30
2023-12-09T01:37:07.368Z,12.13
2023-12-09T01:40:16.781Z,12.55
2023-12-09T01:43:19.581Z,11.82
2023-12-09T01:46:23.649Z,11.67
2023-12-09T01:49:26.982Z,11.17
2023-12-09T01:52:30.767Z,12.38
2023-12-09T01:55:35.408Z,11.00
2023-12-09T01:58:39.656Z,11.38
2023-12-09T02:01:42.602Z,12.10
2023-12-09T02:04:45.559Z,11.17
2023-12-09T02:07:48.262Z,11.20
2023-12-09T02:11:02.863Z,12.02
2023-12-09T02:14:09.511Z,11.57
2023-12-09T02:17:17.132Z,11.30
2023-12-09T02:20:20.286Z,12.63
2023-12-09T02:23:24.383Z,12.25
2023-12-09T02:26:28.501Z,12.18
2023-12-09T02:29:41.141Z,11.85
2023-12-09T02:32:46.095Z,11.43
2023-12-09T02:35:51.482Z,12.27
2023-12-09T02:38:56.806Z,11.80
2023-12-09T02:42:00.706Z,13.05
2023-12-09T02:45:03.970Z,13.43
2023-12-09T02:48:07.132Z,11.87
2023-12-09T02:51:10.212Z,12.13
2023-12-09T02:54:14.806Z,12.38
2023-12-09T02:57:17.726Z,12.60
2023-12-09T03:00:20.538Z,11.25
2023-12-09T03:03:23.568Z,12.13
2023-12-09T03:06:26.451Z,12.77
2023-12-09T03:09:30.736Z,12.13
2023-12-09T03:12:33.675Z,12.70
2023-12-09T03:15:36.621Z,13.15
2023-12-09T03:18:39.690Z,11.73
2023-12-09T03:21:42.521Z,12.07
2023-12-09T03:24:46.682Z,12.60
2023-12-09T03:27:49.522Z,12.02
2023-12-09T03:30:52.250Z,12.13
2023-12-09T03:33:56.508Z,12.50
2023-12-09T03:36:59.604Z,12.93
2023-12-09T03:40:11.265Z,13.32
2023-12-09T03:43:14.069Z,13.00
2023-12-09T03:46:17.086Z,12.70
2023-12-09T03:49:20.036Z,12.43
2023-12-09T03:52:22.835Z,12.52
2023-12-09T03:55:26.952Z,12.02
2023-12-09T03:58:29.683Z,13.63
2023-12-09T04:01:32.623Z,11.60
2023-12-09T04:04:35.419Z,12.70
2023-12-09T04:07:38.413Z,14.30
2023-12-09T04:10:42.834Z,12.68
2023-12-09T04:13:45.794Z,12.98
2023-12-09T04:16:48.506Z,13.03
2023-12-09T04:19:53.038Z,12.77
2023-12-09T04:22:55.927Z,12.82
2023-12-09T04:26:00.442Z,12.75
2023-12-09T04:29:04.088Z,12.68
2023-12-09T04:32:07.336Z,11.63
2023-12-09T04:35:10.855Z,12.00
2023-12-09T04:38:13.594Z,12.68
2023-12-09T04:41:17.790Z,12.75
2023-12-09T04:44:20.667Z,12.77
2023-12-09T04:47:23.692Z,13.13
2023-12-09T04:50:26.932Z,12.55
2023-12-09T04:53:29.661Z,13.60
2023-12-09T04:56:33.917Z,12.73
2023-12-09T04:59:36.826Z,13.05
2023-12-09T05:02:39.598Z,14.57
2023-12-09T05:05:42.682Z,11.88
2023-12-09T05:08:45.428Z,12.20
2023-12-09T05:11:49.526Z,11.95
2023-12-09T05:14:52.244Z,12.73
2023-12-09T05:17:55.720Z,13.17
2023-12-09T05:20:58.640Z,12.73
2023-12-09T05:24:01.420Z,12.98
2023-12-09T05:27:06.185Z,14.70
2023-12-09T05:30:10.101Z,13.65
2023-12-09T05:33:12.959Z,13.20
2023-12-09T05:36:16.032Z,13.52
2023-12-09T05:39:18.966Z,13.55
2023-12-09T05:42:23.206Z,13.57
2023-12-09T05:45:29.661Z,13.80
2023-12-09T05:48:34.650Z,12.00
2023-12-09T05:51:37.807Z,13.70
2023-12-09T05:54:40.644Z,13.32
2023-12-09T05:57:45.070Z,12.90
2023-12-09T06:00:48.145Z,12.98
2023-12-09T06:03:50.962Z,13.23
2023-12-09T06:06:54.143Z,14.80
2023-12-09T06:09:56.888Z,13.45
2023-12-09T06:13:01.170Z,14.00
2023-12-09T06:16:04.094Z,13.52
2023-12-09T06:19:06.820Z,15.33
2023-12-09T06:22:09.732Z,14.57
2023-12-09T06:25:12.616Z,15.13
2023-12-09T06:28:16.717Z,14.38
2023-12-09T06:31:19.429Z,15.10
2023-12-09T06:34:22.262Z,15.73
2023-12-09T06:37:25.062Z,16.10
2023-12-09T06:40:28.036Z,15.60
2023-12-09T06:43:33.671Z,14.88
2023-12-09T06:46:39.113Z,14.68
2023-12-09T06:49:41.925Z,16.67
2023-12-09T06:52:45.210Z,15.10
2023-12-09T06:55:47.913Z,17.60
2023-12-09T06:58:52.465Z,15.05
2023-12-09T07:01:58.068Z,16.48
2023-12-09T07:05:00.809Z,14.73
2023-12-09T07:08:04.019Z,14.23
2023-12-09T07:11:07.724Z,15.60
2023-12-09T07:14:11.917Z,16.23
2023-12-09T07:17:14.776Z,14.18
2023-12-09T07:20:17.922Z,14.50
2023-12-09T07:23:20.778Z,14.10
2023-12-09T07:26:23.515Z,14.82
2023-12-09T07:29:29.599Z,15.02
2023-12-09T07:32:33.815Z,14.63
2023-12-09T07:35:36.856Z,12.67
2023-12-09T07:38:39.764Z,13.23
2023-12-09T07:41:44.137Z,14.77
2023-12-09T07:44:48.289Z,13.40
2023-12-09T07:47:51.178Z,13.50
2023-12-09T07:50:53.976Z,13.20
2023-12-09T07:56:59.637Z,15.75
2023-12-09T08:00:04.936Z,14.05
2023-12-09T08:03:07.756Z,13.80
2023-12-09T08:06:11.640Z,14.13
2023-12-09T08:09:14.613Z,13.52
2023-12-09T08:12:17.365Z,12.05
2023-12-09T08:15:21.600Z,13.77
2023-12-09T08:18:24.481Z,14.15
2023-12-09T08:21:27.426Z,14.10
2023-12-09T08:24:30.305Z,14.20
2023-12-09T08:27:33.128Z,13.75
2023-12-09T08:30:37.610Z,12.60
2023-12-09T08:33:41.269Z,12.88
2023-12-09T08:36:44.408Z,11.87
2023-12-09T08:39:48.847Z,11.25
2023-12-09T08:42:51.963Z,13.02
2023-12-09T08:45:56.047Z,12.82
2023-12-09T08:48:58.940Z,12.40
2023-12-09T08:52:01.773Z,13.03
2023-12-09T08:55:04.735Z,10.98
2023-12-09T08:58:07.492Z,11.55
2023-12-09T09:01:13.414Z,12.57
2023-12-09T09:04:17.019Z,11.43
2023-12-09T09:07:20.004Z,11.43
2023-12-09T09:10:24.029Z,11.30
2023-12-09T09:13:29.785Z,11.90
2023-12-09T09:16:34.028Z,10.45
2023-12-09T09:19:36.939Z,12.73
2023-12-09T09:22:47.497Z,11.57
2023-12-09T09:25:52.573Z,11.55
2023-12-09T09:28:56.297Z,10.80
2023-12-09T09:32:00.477Z,9.93
2023-12-09T09:35:04.277Z,12.43
2023-12-09T09:38:07.489Z,11.47
2023-12-09T09:41:17.269Z,11.30
2023-12-09T09:44:23.726Z,10.25
2023-12-09T09:47:30.907Z,10.32
2023-12-09T09:50:40.706Z,11.88
2023-12-09T09:53:52.727Z,12.13
2023-12-09T09:56:59.193Z,11.93
2023-12-09T10:00:02.769Z,11.65
2023-12-09T10:03:07.709Z,11.65
2023-12-09T10:06:12.877Z,12.15
2023-12-09T10:09:16.218Z,11.20
2023-12-09T10:12:19.118Z,11.30
2023-12-09T10:15:22.656Z,12.32
2023-12-09T10:18:27.241Z,12.68
2023-12-09T10:21:30.172Z,11.63
2023-12-09T10:24:33.152Z,11.43
2023-12-09T10:27:36.355Z,10.07
2023-12-09T10:30:39.533Z,10.48
2023-12-09T10:33:47.118Z,10.90
2023-12-09T10:36:50.090Z,10.88
2023-12-09T10:39:54.750Z,11.13
2023-12-09T10:42:58.833Z,12.02
2023-12-09T10:46:01.931Z,10.68
2023-12-09T10:49:07.625Z,10.68
2023-12-09T10:52:11.777Z,11.05
2023-12-09T10:55:15.888Z,10.27
2023-12-09T10:58:20.115Z,10.77
2023-12-09T11:01:23.860Z,10.02
2023-12-09T11:04:34.907Z,9.15
2023-12-09T11:07:41.998Z,10.48
2023-12-09T11:13:56.826Z,10.18
2023-12-09T11:17:01.490Z,9.88
2023-12-09T11:23:16.616Z,9.60
2023-12-09T11:26:31.590Z,8.80
2023-12-09T11:29:35.810Z,9.20
2023-12-09T11:32:38.746Z,8.95
2023-12-09T11:35:47.002Z,9.98
2023-12-09T11:38:52.385Z,9.00
2023-12-09T11:41:58.733Z,9.13
2023-12-09T11:45:05.025Z,9.50
2023-12-09T11:48:11.741Z,9.95
2023-12-09T11:51:17.764Z,7.55
2023-12-09T11:54:21.959Z,7.47
2023-12-09T11:57:24.788Z,8.23
2023-12-09T12:00:29.794Z,8.27
2023-12-09T12:03:34.034Z,8.32
2023-12-09T12:06:38.030Z,8.02
2023-12-09T12:09:46.998Z,8.32
2023-12-09T12:12:51.576Z,7.33
2023-12-09T12:15:56.127Z,8.30
2023-12-09T12:19:02.267Z,7.13
2023-12-09T12:22:06.444Z,7.35
2023-12-09T12:25:11.587Z,7.25
2023-12-09T12:28:18.148Z,7.33
2023-12-09T12:31:22.087Z,7.10
2023-12-09T12:34:25.457Z,7.20
2023-12-09T12:37:30.169Z,6.82
2023-12-09T12:40:45.287Z,6.53
2023-12-09T12:43:54.194Z,6.63
2023-12-09T12:46:57.111Z,7.55
2023-12-09T12:50:00.279Z,6.80
2023-12-09T12:53:04.199Z,6.32
2023-12-09T12:56:09.989Z,6.10
2023-12-09T12:59:14.906Z,5.47
2023-12-09T13:02:23.409Z,6.32
2023-12-09T13:05:26.500Z,6.55
2023-12-09T13:08:29.406Z,6.82
2023-12-09T13:11:33.631Z,6.38
2023-12-09T13:14:36.623Z,7.07
2023-12-09T13:17:40.264Z,7.22
2023-12-09T13:20:48.084Z,6.95
2023-12-09T13:23:51.070Z,7.15
2023-12-09T13:27:00.011Z,7.07
2023-12-09T13:30:05.621Z,6.10
2023-12-09T13:33:08.731Z,6.28
2023-12-09T13:36:13.877Z,6.30
2023-12-09T13:39:17.058Z,6.25
2023-12-09T13:42:21.411Z,6.00
2023-12-09T13:45:25.708Z,6.07
2023-12-09T13:48:29.950Z,6.47
2023-12-09T13:51:33.165Z,5.28
2023-12-09T13:54:36.846Z,6.40
2023-12-09T13:57:41.891Z,5.95
2023-12-09T14:00:46.777Z,6.10
2023-12-09T14:03:54.844Z,6.07
2023-12-09T14:06:58.989Z,6.45
2023-12-09T14:10:02.259Z,6.10
2023-12-09T14:13:09.272Z,5.65
2023-12-09T14:16:12.376Z,5.77
2023-12-09T14:19:15.477Z,4.85
2023-12-09T14:22:18.516Z,6.63
2023-12-09T14:25:24.749Z,5.90
2023-12-09T14:28:31.075Z,5.63
2023-12-09T14:31:33.957Z,6.60
2023-12-09T14:34:36.945Z,5.90
2023-12-09T14:37:45.922Z,5.35
2023-12-09T14:40:51.793Z,5.00
2023-12-09T14:44:03.392Z,5.90
2023-12-09T14:47:08.918Z,5.77
2023-12-09T14:50:14.121Z,5.47
2023-12-09T14:53:20.872Z,5.22
2023-12-09T14:56:23.914Z,4.85
2023-12-09T14:59:30.584Z,5.65
2023-12-09T15:02:34.425Z,6.20
2023-12-09T15:05:37.453Z,5.43
2023-12-09T15:08:42.323Z,6.53
2023-12-09T15:11:45.455Z,6.63
2023-12-09T15:14:50.622Z,6.95
2023-12-09T15:17:57.116Z,6.90
2023-12-09T15:21:03.316Z,6.10
2023-12-09T15:24:07.819Z,8.30
2023-12-09T15:27:14.619Z,7.38
2023-12-09T15:30:20.046Z,7.82
2023-12-09T15:33:28.828Z,8.17
2023-12-09T15:36:32.000Z,7.55
2023-12-09T15:39:40.326Z,6.30
2023-12-09T15:42:43.612Z,5.65
2023-12-09T15:45:48.226Z,5.57
2023-12-09T15:48:51.253Z,4.90
2023-12-09T15:51:55.513Z,5.85
2023-12-09T15:54:58.851Z,5.60
2023-12-09T15:58:02.111Z,5.57
2023-12-09T16:01:06.705Z,5.68
2023-12-09T16:04:09.723Z,6.00
2023-12-09T16:07:13.106Z,6.35
2023-12-09T16:10:16.750Z,6.70
2023-12-09T16:13:24.828Z,6.45
2023-12-09T16:16:29.443Z,6.50
2023-12-09T16:19:32.549Z,5.67
2023-12-09T16:22:35.593Z,6.20
2023-12-09T16:25:38.944Z,6.55
2023-12-09T16:28:43.005Z,6.10
2023-12-09T16:31:47.769Z,6.30
2023-12-09T16:34:50.923Z,6.73
2023-12-09T16:37:53.853Z,5.97
2023-12-09T16:40:56.725Z,7.10
2023-12-09T16:43:59.520Z,7.28
2023-12-09T16:47:05.349Z,6.63
2023-12-09T16:50:11.846Z,7.07
2023-12-09T16:53:21.374Z,6.70
2023-12-09T16:56:28.413Z,7.68
2023-12-09T16:59:33.736Z,6.75
2023-12-09T17:02:39.197Z,8.05
2023-12-09T17:05:44.800Z,7.73
2023-12-09T17:08:49.794Z,7.60
2023-12-09T17:11:53.999Z,8.18
2023-12-09T17:14:56.884Z,7.72
2023-12-09T17:18:01.281Z,8.93
2023-12-09T17:21:04.578Z,8.07
2023-12-09T17:24:07.854Z,9.25
2023-12-09T17:27:11.989Z,8.38
2023-12-09T17:30:17.125Z,8.30
2023-12-09T17:33:23.884Z,9.38
2023-12-09T17:36:28.479Z,8.73
2023-12-09T17:39:33.773Z,8.07
2023-12-09T17:42:39.294Z,8.00
2023-12-09T17:45:43.416Z,8.20
2023-12-09T17:48:49.178Z,8.18
2023-12-09T17:51:52.259Z,9.03
2023-12-09T17:54:55.307Z,8.30
2023-12-09T17:57:58.931Z,9.77
2023-12-09T18:01:05.046Z,9.35
2023-12-09T18:04:09.562Z,9.07
2023-12-09T18:07:12.537Z,8.53
2023-12-09T18:10:18.534Z,9.18
2023-12-09T18:13:24.125Z,9.50
2023-12-09T18:16:29.207Z,8.90
2023-12-09T18:19:33.637Z,8.27
2023-12-09T18:22:37.070Z,9.07
2023-12-09T18:25:42.108Z,9.43
2023-12-09T18:28:45.348Z,10.02
2023-12-09T18:31:48.366Z,9.10
2023-12-09T18:34:55.741Z,8.77
2023-12-09T18:38:04.910Z,9.73
2023-12-09T18:41:10.888Z,8.85
2023-12-09T18:44:16.525Z,9.88
2023-12-09T18:47:21.498Z,8.98
2023-12-09T18:50:25.818Z,9.00
2023-12-09T18:53:28.887Z,9.70
2023-12-09T18:56:31.881Z,9.77
2023-12-09T18:59:34.884Z,10.50
2023-12-09T19:02:39.966Z,9.50
2023-12-09T19:05:49.466Z,9.48
2023-12-09T19:08:54.918Z,9.43
2023-12-09T19:11:58.372Z,9.77
2023-12-09T19:15:01.259Z,9.45
2023-12-09T19:18:07.769Z,9.20
2023-12-09T19:21:16.495Z,9.48
2023-12-09T19:24:19.523Z,9.37
2023-12-09T19:27:22.572Z,9.93
2023-12-09T19:30:25.674Z,9.52
2023-12-09T19:33:29.959Z,9.82
2023-12-09T19:36:34.362Z,10.32
2023-12-09T19:39:37.412Z,9.33
2023-12-09T19:42:40.624Z,9.40
2023-12-09T19:45:43.794Z,9.40
2023-12-09T19:48:46.807Z,9.18
2023-12-09T19:51:51.082Z,9.93
2023-12-09T19:54:54.537Z,9.57
2023-12-09T19:57:58.270Z,9.98
2023-12-09T20:01:02.130Z,9.60
2023-12-09T20:04:05.342Z,9.60
2023-12-09T20:07:09.749Z,9.80
2023-12-09T20:10:13.092Z,10.23
2023-12-09T20:13:17.099Z,10.05
2023-12-09T20:16:19.937Z,8.90
2023-12-09T20:19:25.848Z,9.45
2023-12-09T20:22:30.984Z,9.23
2023-12-09T20:25:34.431Z,9.17
2023-12-09T20:28:37.354Z,8.93
2023-12-09T20:31:40.138Z,9.65
2023-12-09T20:34:43.195Z,9.73
2023-12-09T20:37:48.298Z,10.05
2023-12-09T20:40:51.138Z,9.43
2023-12-09T20:43:54.042Z,8.05
2023-12-09T20:46:56.960Z,8.95
2023-12-09T20:50:00.086Z,9.07
2023-12-09T20:53:06.927Z,9.40
2023-12-09T20:56:17.543Z,8.97
2023-12-09T20:59:20.355Z,9.43
2023-12-09T21:02:24.820Z,9.60
2023-12-09T21:05:27.888Z,9.85
2023-12-09T21:08:32.133Z,8.88
2023-12-09T21:11:38.480Z,8.57
2023-12-09T21:14:41.278Z,8.40
2023-12-09T21:17:44.363Z,9.45
2023-12-09T21:20:47.356Z,9.10
2023-12-09T21:23:51.545Z,8.68
2023-12-09T21:26:54.495Z,8.50
2023-12-09T21:29:57.586Z,9.05
2023-12-09T21:33:01.163Z,8.73
2023-12-09T21:36:04.324Z,8.90
2023-12-09T21:39:09.903Z,9.63
2023-12-09T21:42:12.784Z,8.23
2023-12-09T21:45:15.830Z,8.18
2023-12-09T21:48:18.813Z,8.27
2023-12-09T21:51:22.242Z,8.55
2023-12-09T21:54:26.584Z,8.32
2023-12-09T21:57:29.566Z,8.70
2023-12-09T22:00:32.372Z,8.02
2023-12-09T22:03:35.419Z,7.50
2023-12-09T22:06:38.342Z,8.07
2023-12-09T22:09:42.830Z,8.00
2023-12-09T22:12:47.208Z,7.53
2023-12-09T22:15:50.295Z,7.72
2023-12-09T22:18:53.177Z,6.97
2023-12-09T22:21:56.208Z,7.43
2023-12-09T22:25:00.729Z,7.22
2023-12-09T22:28:04.284Z,7.50
2023-12-09T22:31:09.624Z,7.43
2023-12-09T22:34:13.054Z,7.40
2023-12-09T22:37:16.763Z,7.18
2023-12-09T22:40:21.054Z,6.85
2023-12-09T22:43:24.042Z,7.40
2023-12-09T22:46:28.429Z,6.32
2023-12-09T22:49:31.628Z,6.85
2023-12-09T22:52:34.536Z,6.88
2023-12-09T22:55:38.724Z,6.70
2023-12-09T22:58:41.694Z,7.37
2023-12-09T23:01:46.195Z,8.00
2023-12-09T23:04:49.303Z,7.47
2023-12-09T23:07:52.223Z,6.88
2023-12-09T23:10:56.532Z,7.35
2023-12-09T23:13:59.391Z,6.57
2023-12-09T23:17:02.455Z,6.35
2023-12-09T23:20:06.584Z,6.15
2023-12-09T23:23:09.902Z,5.85
2023-12-09T23:26:14.350Z,6.00
2023-12-09T23:29:17.160Z,6.13
2023-12-09T23:32:20.019Z,5.97
2023-12-09T23:35:22.821Z,6.35
2023-12-09T23:38:25.696Z,6.05
2023-12-09T23:41:30.145Z,7.63
2023-12-09T23:44:32.991Z,5.70
2023-12-09T23:47:35.989Z,6.25
2023-12-09T23:50:38.866Z,6.55
2023-12-09T23:53:41.862Z,5.93
2023-12-09T23:56:46.024Z,6.82
2023-12-09T23:59:48.965Z,6.73
